Time;durP1;ratioP1;P1;durP2;ratioP2;P2;SDS_P1;SDS_P2;PMS_P1;PMS_P2;Temp;Humidity;BMP_temperature;BMP_pressure;BME280_temperature;BME280_humidity;BME280_pressure;Samples;Min_cycle;Max_cycle;Signal;HPM_P1;HPM_P2
2022/02/08 00:00:41;;;;;;;;;57.75;39.25;;;;;;;;5031796;28;51166;-54
2022/02/08 00:03:25;;;;;;;;;51.50;42.25;;;;;;;;5029929;28;51168;-53
2022/02/08 00:09:24;;;;;;;;;46.75;37.75;;;;;;;;5026562;28;51092;-56
2022/02/08 00:12:08;;;;;;;;;54.50;39.75;;;;;;;;5036673;28;51077;-56
2022/02/08 00:14:54;;;;;;;;;55.50;43.25;;;;;;;;5037284;28;51035;-55
2022/02/08 00:17:39;;;;;;;;;53.00;41.75;;;;;;;;5036993;28;51639;-55
2022/02/08 00:20:23;;;;;;;;;50.75;40.25;;;;;;;;5032632;28;51405;-55
2022/02/08 00:23:07;;;;;;;;;56.00;43.25;;;;;;;;5030489;28;51483;-55
2022/02/08 00:25:52;;;;;;;;;57.75;44.75;;;;;;;;5028039;28;51424;-52
2022/02/08 00:28:39;;;;;;;;;50.75;40.75;;;;;;;;5032569;28;51604;-55
2022/02/08 00:31:24;;;;;;;;;55.75;41.25;;;;;;;;5026130;28;52495;-52
2022/02/08 00:34:08;;;;;;;;;50.50;40.75;;;;;;;;5037758;28;51121;-51
2022/02/08 00:36:53;;;;;;;;;49.00;37.50;;;;;;;;5035919;28;51474;-49
2022/02/08 00:39:37;;;;;;;;;51.25;38.75;;;;;;;;5040485;28;51033;-53
2022/02/08 00:42:24;;;;;;;;;53.50;40.50;;;;;;;;5040616;28;52213;-56
2022/02/08 00:48:05;;;;;;;;;52.50;41.50;;;;;;;;5036250;28;51388;-54
2022/02/08 00:50:51;;;;;;;;;52.75;40.50;;;;;;;;5036769;28;51447;-52
2022/02/08 00:53:35;;;;;;;;;50.50;40.25;;;;;;;;5041746;28;51179;-54
2022/02/08 00:56:21;;;;;;;;;55.25;41.00;;;;;;;;5032623;28;51064;-57
2022/02/08 00:59:07;;;;;;;;;52.75;41.50;;;;;;;;5029198;28;51087;-52
2022/02/08 01:01:51;;;;;;;;;54.00;40.50;;;;;;;;5032015;28;51403;-57
2022/02/08 01:04:35;;;;;;;;;59.00;46.00;;;;;;;;5040350;28;51210;-54
2022/02/08 01:07:20;;;;;;;;;64.75;48.25;;;;;;;;5022467;28;51566;-50
2022/02/08 01:10:05;;;;;;;;;62.00;48.25;;;;;;;;5040390;28;51128;-54
2022/02/08 01:12:49;;;;;;;;;62.75;48.50;;;;;;;;5038764;28;51005;-54
2022/02/08 01:15:34;;;;;;;;;69.00;49.25;;;;;;;;5039449;28;51041;-53
2022/02/08 01:18:18;;;;;;;;;61.50;48.75;;;;;;;;5039561;28;51591;-52
2022/02/08 01:21:03;;;;;;;;;62.75;48.25;;;;;;;;5033789;28;51139;-54
2022/02/08 01:23:47;;;;;;;;;60.25;47.75;;;;;;;;5024957;28;51120;-52
2022/02/08 01:26:33;;;;;;;;;64.25;47.25;;;;;;;;5031801;28;51436;-48
2022/02/08 01:29:35;;;;;;;;;58.50;45.50;;;;;;;;5040139;28;51192;-53
2022/02/08 01:38:04;;;;;;;;;66.75;48.25;;;;;;;;5038176;28;51158;-52
2022/02/08 01:44:14;;;;;;;;;60.75;44.50;;;;;;;;5033763;28;51611;-53
2022/02/08 01:50:29;;;;;;;;;59.25;45.25;;;;;;;;5032938;28;51120;-54
2022/02/08 01:52:47;;;;;;;;;61.25;46.75;;;;;;;;5032052;28;51430;-53
2022/02/08 01:55:32;;;;;;;;;60.00;47.50;;;;;;;;5030982;28;51204;-51
2022/02/08 01:58:17;;;;;;;;;59.00;45.25;;;;;;;;5036444;28;51992;-53
2022/02/08 02:01:02;;;;;;;;;62.00;46.00;;;;;;;;5037384;28;51821;-49
2022/02/08 02:03:47;;;;;;;;;58.25;45.00;;;;;;;;5034379;28;51155;-53
2022/02/08 02:06:31;;;;;;;;;59.50;46.75;;;;;;;;5038674;28;51162;-51
2022/02/08 02:09:15;;;;;;;;;63.25;47.00;;;;;;;;5036483;28;51081;-52
2022/02/08 02:12:00;;;;;;;;;63.50;46.50;;;;;;;;5014280;28;51937;-53
2022/02/08 02:14:45;;;;;;;;;61.00;48.00;;;;;;;;5035390;28;51096;-52
2022/02/08 02:17:29;;;;;;;;;65.00;48.75;;;;;;;;5029510;28;51099;-54
2022/02/08 02:20:14;;;;;;;;;60.50;48.00;;;;;;;;5037638;28;51168;-53
2022/02/08 02:22:59;;;;;;;;;59.00;45.75;;;;;;;;5034333;28;51124;-51
2022/02/08 02:25:43;;;;;;;;;57.25;45.00;;;;;;;;5031129;28;51053;-51
2022/02/08 02:28:27;;;;;;;;;64.25;48.50;;;;;;;;5037471;28;50997;-53
2022/02/08 02:31:12;;;;;;;;;60.75;46.75;;;;;;;;5037541;28;51094;-55
2022/02/08 02:33:56;;;;;;;;;62.25;47.75;;;;;;;;5035612;28;51751;-52
2022/02/08 02:36:41;;;;;;;;;64.00;48.00;;;;;;;;5034963;28;51193;-53
2022/02/08 02:39:26;;;;;;;;;61.25;47.00;;;;;;;;5037665;28;51068;-56
2022/02/08 02:42:14;;;;;;;;;62.00;47.75;;;;;;;;5032958;28;51453;-55
2022/02/08 02:44:58;;;;;;;;;60.75;49.00;;;;;;;;5037711;28;51077;-53
2022/02/08 02:47:43;;;;;;;;;59.75;47.25;;;;;;;;5031724;28;51730;-54
2022/02/08 02:50:27;;;;;;;;;62.25;48.25;;;;;;;;5037552;28;51133;-51
2022/02/08 02:53:12;;;;;;;;;61.50;47.50;;;;;;;;5035694;28;52520;-54
2022/02/08 02:55:56;;;;;;;;;59.75;45.00;;;;;;;;5025180;28;51161;-54
2022/02/08 02:58:41;;;;;;;;;58.25;45.25;;;;;;;;5037392;28;53117;-55
2022/02/08 03:04:26;;;;;;;;;56.50;44.75;;;;;;;;5038406;28;51284;-54
2022/02/08 03:19:22;;;;;;;;;57.00;45.50;;;;;;;;5033377;28;51067;-55
2022/02/08 03:22:07;;;;;;;;;55.25;44.75;;;;;;;;5031233;28;51475;-55
2022/02/08 03:24:51;;;;;;;;;56.50;44.50;;;;;;;;5037722;28;51068;-51
2022/02/08 03:27:36;;;;;;;;;60.50;45.00;;;;;;;;5031474;28;51201;-54
2022/02/08 03:30:20;;;;;;;;;61.00;45.75;;;;;;;;5031573;28;51099;-52
2022/02/08 03:33:07;;;;;;;;;61.00;44.75;;;;;;;;5031656;28;51132;-49
2022/02/08 03:35:54;;;;;;;;;60.00;44.75;;;;;;;;5034852;28;51116;-52
2022/02/08 03:38:43;;;;;;;;;59.75;45.00;;;;;;;;5032224;28;51127;-55
2022/02/08 03:41:35;;;;;;;;;63.50;46.25;;;;;;;;5035115;28;51012;-54
2022/02/08 03:44:23;;;;;;;;;62.75;46.50;;;;;;;;5030689;28;51116;-51
2022/02/08 03:47:07;;;;;;;;;54.75;45.00;;;;;;;;5028523;28;51119;-56
2022/02/08 03:49:52;;;;;;;;;59.00;45.50;;;;;;;;5032268;28;51159;-54
2022/02/08 03:52:38;;;;;;;;;56.50;43.75;;;;;;;;5037778;28;51289;-54
2022/02/08 03:55:22;;;;;;;;;60.25;44.00;;;;;;;;5034027;28;51219;-53
2022/02/08 03:58:06;;;;;;;;;57.75;45.50;;;;;;;;5037236;28;51040;-52
2022/02/08 04:03:46;;;;;;;;;56.00;41.50;;;;;;;;5028615;28;51676;-54
2022/02/08 04:06:30;;;;;;;;;57.75;45.25;;;;;;;;5042188;28;51021;-54
2022/02/08 04:09:17;;;;;;;;;59.25;46.50;;;;;;;;5036157;28;51617;-50
2022/02/08 04:12:06;;;;;;;;;61.50;46.00;;;;;;;;5035624;28;51291;-51
2022/02/08 04:33:40;;;;;;;;;65.25;50.00;;;;;;;;5034755;28;52086;-56
2022/02/08 04:37:19;;;;;;;;;62.50;47.75;;;;;;;;5037215;28;51589;-49
2022/02/08 04:42:35;;;;;;;;;66.75;50.75;;;;;;;;5038367;28;51681;-54
2022/02/08 04:46:07;;;;;;;;;62.00;46.25;;;;;;;;5037308;28;51122;-54
2022/02/08 04:48:52;;;;;;;;;62.00;47.50;;;;;;;;5043717;28;51107;-51
2022/02/08 04:51:44;;;;;;;;;65.00;48.75;;;;;;;;5037642;28;51458;-52
2022/02/08 05:00:27;;;;;;;;;67.75;49.75;;;;;;;;5042062;28;51060;-54
2022/02/08 05:43:01;;;;;;;;;67.25;52.25;;;;;;;;5003782;28;51249;-54
2022/02/08 05:49:03;;;;;;;;;68.50;51.50;;;;;;;;5019501;28;51137;-54
2022/02/08 05:54:34;;;;;;;;;75.50;58.75;;;;;;;;5041158;28;51088;-54
2022/02/08 05:57:19;;;;;;;;;77.50;58.75;;;;;;;;5039268;28;51138;-53
2022/02/08 06:00:04;;;;;;;;;71.50;54.00;;;;;;;;5032269;28;51174;-54
2022/02/08 06:02:49;;;;;;;;;67.50;54.25;;;;;;;;5039471;28;52486;-51
2022/02/08 06:08:19;;;;;;;;;68.25;51.75;;;;;;;;4975816;28;51203;-49
2022/02/08 06:11:13;;;;;;;;;71.00;55.00;;;;;;;;4977176;28;51607;-50
2022/02/08 06:13:59;;;;;;;;;72.75;56.00;;;;;;;;4972819;28;51249;-51
2022/02/08 06:16:43;;;;;;;;;71.75;56.00;;;;;;;;4977518;28;51302;-52
2022/02/08 06:19:27;;;;;;;;;69.75;56.00;;;;;;;;4975210;28;51169;-51
2022/02/08 06:22:11;;;;;;;;;72.75;55.25;;;;;;;;4977324;28;51143;-51
2022/02/08 06:24:55;;;;;;;;;70.75;54.00;;;;;;;;4973079;28;51143;-51
2022/02/08 06:27:40;;;;;;;;;75.50;58.50;;;;;;;;4977566;28;51148;-52
2022/02/08 06:30:24;;;;;;;;;72.00;56.50;;;;;;;;4977148;28;51134;-50
2022/02/08 06:33:12;;;;;;;;;73.00;59.50;;;;;;;;4975444;28;51413;-51
2022/02/08 06:35:57;;;;;;;;;17.25;9.75;;;;;;;;4972266;28;51457;-50
2022/02/08 06:38:41;;;;;;;;;75.50;62.25;;;;;;;;4976758;28;51232;-53
2022/02/08 06:41:25;;;;;;;;;74.75;64.50;;;;;;;;4977281;28;51212;-54
2022/02/08 06:44:09;;;;;;;;;77.75;66.25;;;;;;;;4977283;28;51658;-56
2022/02/08 06:46:53;;;;;;;;;77.00;62.00;;;;;;;;5044398;28;51453;-56
2022/02/08 06:49:38;;;;;;;;;82.75;70.25;;;;;;;;5044810;28;51176;-56
2022/02/08 06:52:22;;;;;;;;;78.00;67.50;;;;;;;;5058797;28;51517;-56
2022/02/08 06:55:08;;;;;;;;;89.75;73.00;;;;;;;;5059114;28;51145;-55
2022/02/08 06:58:01;;;;;;;;;80.75;65.75;;;;;;;;5060043;28;51173;-56
2022/02/08 07:00:48;;;;;;;;;77.25;60.25;;;;;;;;5055653;28;51320;-57
2022/02/08 07:03:32;;;;;;;;;75.50;60.25;;;;;;;;5039337;28;51039;-55
2022/02/08 07:06:17;;;;;;;;;74.50;62.25;;;;;;;;5042752;28;51170;-56
2022/02/08 07:09:01;;;;;;;;;80.25;63.75;;;;;;;;5045511;28;51244;-56
2022/02/08 07:11:47;;;;;;;;;78.50;64.25;;;;;;;;5050452;28;51407;-57
2022/02/08 07:14:33;;;;;;;;;72.00;60.50;;;;;;;;5037339;28;51316;-57
2022/02/08 07:17:17;;;;;;;;;78.50;66.50;;;;;;;;5049655;28;51654;-55
2022/02/08 07:20:02;;;;;;;;;74.00;59.75;;;;;;;;5058471;28;51154;-56
2022/02/08 07:22:46;;;;;;;;;74.00;58.25;;;;;;;;5058361;28;51185;-57
2022/02/08 07:25:30;;;;;;;;;74.00;59.25;;;;;;;;5043307;28;51070;-56
2022/02/08 07:28:14;;;;;;;;;78.00;64.50;;;;;;;;5039169;28;51053;-57
2022/02/08 07:31:13;;;;;;;;;74.50;59.50;;;;;;;;5053841;28;51148;-56
2022/02/08 07:34:12;;;;;;;;;78.75;64.50;;;;;;;;5059576;28;51098;-57
2022/02/08 07:37:34;;;;;;;;;78.00;64.75;;;;;;;;5057002;28;51228;-57
2022/02/08 07:43:16;;;;;;;;;72.00;55.75;;;;;;;;5038888;28;51608;-56
2022/02/08 07:46:01;;;;;;;;;63.25;50.75;;;;;;;;5038883;28;51141;-57
2022/02/08 07:48:45;;;;;;;;;69.75;52.25;;;;;;;;5048651;28;51175;-54
2022/02/08 07:51:32;;;;;;;;;75.00;60.75;;;;;;;;5059206;28;51073;-57
2022/02/08 07:54:16;;;;;;;;;70.75;54.75;;;;;;;;5058949;28;51099;-56
2022/02/08 07:57:00;;;;;;;;;72.25;56.75;;;;;;;;5054461;28;51024;-56
2022/02/08 07:59:45;;;;;;;;;73.00;59.50;;;;;;;;5039237;28;51172;-57
2022/02/08 08:02:29;;;;;;;;;71.75;53.00;;;;;;;;5038820;28;53083;-55
2022/02/08 08:05:13;;;;;;;;;67.25;53.75;;;;;;;;5041063;28;51553;-58
2022/02/08 08:07:58;;;;;;;;;68.75;52.00;;;;;;;;5046590;28;51724;-57
2022/02/08 08:10:46;;;;;;;;;69.00;51.75;;;;;;;;5043865;28;51235;-56
2022/02/08 08:13:37;;;;;;;;;65.25;51.00;;;;;;;;5046527;28;51104;-57
2022/02/08 08:16:50;;;;;;;;;69.50;52.25;;;;;;;;5047736;28;51137;-56
2022/02/08 08:19:38;;;;;;;;;70.75;55.25;;;;;;;;5038563;28;51161;-56
2022/02/08 08:22:22;;;;;;;;;69.50;52.00;;;;;;;;5056126;28;51526;-57
2022/02/08 08:25:07;;;;;;;;;61.00;49.00;;;;;;;;5047855;28;51101;-56
2022/02/08 08:27:51;;;;;;;;;61.00;47.75;;;;;;;;5048399;28;51572;-57
2022/02/08 08:30:36;;;;;;;;;61.75;47.50;;;;;;;;5045742;28;51101;-58
2022/02/08 08:33:20;;;;;;;;;57.25;45.50;;;;;;;;5038248;28;51811;-57
2022/02/08 08:36:05;;;;;;;;;66.50;49.00;;;;;;;;5043535;28;51185;-57
2022/02/08 08:38:52;;;;;;;;;62.75;47.00;;;;;;;;5058825;28;51045;-58
2022/02/08 08:41:40;;;;;;;;;62.50;48.25;;;;;;;;5058095;28;51255;-57
2022/02/08 08:50:45;;;;;;;;;69.75;50.75;;;;;;;;5041721;28;51102;-58
2022/02/08 08:53:32;;;;;;;;;62.75;48.25;;;;;;;;5049005;28;51522;-57
2022/02/08 08:56:16;;;;;;;;;53.75;42.50;;;;;;;;5041804;28;51309;-56
2022/02/08 08:59:01;;;;;;;;;51.25;40.50;;;;;;;;5045729;28;51479;-58
2022/02/08 09:01:46;;;;;;;;;54.50;42.25;;;;;;;;5042165;28;51181;-56
2022/02/08 09:04:34;;;;;;;;;54.75;41.75;;;;;;;;5046313;28;51180;-57
2022/02/08 09:07:18;;;;;;;;;51.50;41.50;;;;;;;;5061857;28;51910;-57
2022/02/08 09:10:04;;;;;;;;;56.25;42.00;;;;;;;;5055428;28;51528;-57
2022/02/08 09:13:01;;;;;;;;;55.75;42.50;;;;;;;;5042808;28;51160;-57
2022/02/08 09:19:25;;;;;;;;;53.50;42.00;;;;;;;;5052211;28;51440;-57
2022/02/08 09:25:15;;;;;;;;;52.75;40.00;;;;;;;;5050262;28;51584;-57
2022/02/08 09:31:05;;;;;;;;;46.50;37.75;;;;;;;;5055458;28;51386;-58
2022/02/08 09:33:50;;;;;;;;;50.00;38.75;;;;;;;;5040946;28;51584;-58
2022/02/08 09:36:34;;;;;;;;;44.75;35.75;;;;;;;;5044137;28;51498;-55
2022/02/08 09:39:18;;;;;;;;;46.25;37.25;;;;;;;;5040896;28;51063;-58
2022/02/08 09:42:05;;;;;;;;;50.50;39.50;;;;;;;;5042381;28;51158;-56
2022/02/08 09:44:49;;;;;;;;;42.50;34.25;;;;;;;;5042415;28;51509;-56
2022/02/08 09:47:53;;;;;;;;;50.00;39.50;;;;;;;;5045154;28;51078;-57
2022/02/08 09:50:39;;;;;;;;;47.75;38.00;;;;;;;;5042247;28;51504;-56
2022/02/08 09:53:31;;;;;;;;;51.50;39.25;;;;;;;;5040747;28;51155;-57
2022/02/08 09:56:15;;;;;;;;;49.50;38.75;;;;;;;;5057896;28;50996;-57
2022/02/08 09:58:59;;;;;;;;;46.25;36.75;;;;;;;;5049129;28;52385;-57
2022/02/08 10:01:54;;;;;;;;;49.75;38.25;;;;;;;;5040387;28;51615;-57
2022/02/08 10:04:39;;;;;;;;;44.25;35.50;;;;;;;;5048950;28;51184;-57
2022/02/08 10:07:23;;;;;;;;;50.75;39.00;;;;;;;;5041747;28;51100;-57
2022/02/08 10:10:09;;;;;;;;;47.50;39.00;;;;;;;;5040002;28;51167;-57
2022/02/08 10:22:04;;;;;;;;;48.75;38.50;;;;;;;;5035029;28;51085;-56
2022/02/08 10:24:49;;;;;;;;;53.00;39.75;;;;;;;;5058767;28;51442;-57
2022/02/08 10:27:40;;;;;;;;;49.75;38.00;;;;;;;;5060362;28;51148;-57
2022/02/08 10:39:33;;;;;;;;;52.50;41.75;;;;;;;;5060473;28;51119;-58
2022/02/08 10:42:18;;;;;;;;;52.00;39.00;;;;;;;;5060359;28;51553;-57
2022/02/08 10:45:03;;;;;;;;;44.00;33.75;;;;;;;;5039591;28;51084;-57
2022/02/08 10:47:56;;;;;;;;;48.00;39.00;;;;;;;;5044895;28;51173;-57
2022/02/08 10:50:43;;;;;;;;;49.25;38.00;;;;;;;;5054368;28;51322;-57
2022/02/08 10:53:38;;;;;;;;;45.75;37.50;;;;;;;;5040602;28;51052;-56
2022/02/08 10:56:26;;;;;;;;;48.00;38.25;;;;;;;;5038687;28;51079;-57
2022/02/08 10:59:20;;;;;;;;;47.75;37.00;;;;;;;;5039413;28;51499;-58
2022/02/08 11:02:11;;;;;;;;;41.75;32.50;;;;;;;;5050634;28;51430;-57
2022/02/08 11:05:16;;;;;;;;;45.00;35.00;;;;;;;;5039232;28;51548;-58
2022/02/08 11:11:13;;;;;;;;;47.75;35.75;;;;;;;;5038456;28;51134;-58
2022/02/08 11:14:18;;;;;;;;;52.25;40.00;;;;;;;;5038846;28;51240;-58
2022/02/08 11:20:24;;;;;;;;;40.50;32.00;;;;;;;;5040045;28;51654;-58
2022/02/08 11:23:34;;;;;;;;;51.75;39.25;;;;;;;;5046195;28;51182;-56
2022/02/08 11:26:46;;;;;;;;;49.75;38.75;;;;;;;;5059184;28;51095;-57
2022/02/08 11:29:39;;;;;;;;;48.00;37.75;;;;;;;;5057287;28;51043;-57
2022/02/08 11:32:37;;;;;;;;;51.00;41.00;;;;;;;;5041011;28;51095;-57
2022/02/08 11:44:58;;;;;;;;;50.75;39.75;;;;;;;;5044018;28;51223;-57
2022/02/08 11:51:32;;;;;;;;;44.25;34.00;;;;;;;;5040866;28;51196;-57
2022/02/08 11:54:07;;;;;;;;;51.25;39.75;;;;;;;;5038740;28;51126;-57
2022/02/08 12:03:28;;;;;;;;;46.75;34.00;;;;;;;;5055327;28;51089;-57
2022/02/08 12:06:43;;;;;;;;;44.00;33.25;;;;;;;;5055685;28;51074;-57
2022/02/08 12:09:32;;;;;;;;;48.75;38.00;;;;;;;;5042619;28;51284;-57
2022/02/08 12:33:26;;;;;;;;;48.25;37.50;;;;;;;;5059222;28;51073;-57
2022/02/08 12:36:28;;;;;;;;;43.50;35.75;;;;;;;;5058039;28;51166;-56
2022/02/08 12:55:41;;;;;;;;;48.00;37.00;;;;;;;;5056453;28;51301;-55
2022/02/08 12:58:12;;;;;;;;;45.75;35.50;;;;;;;;5051731;28;51561;-56
2022/02/08 13:01:53;;;;;;;;;49.25;38.00;;;;;;;;5041253;28;51117;-56
2022/02/08 13:04:30;;;;;;;;;51.00;40.25;;;;;;;;5040024;28;52176;-58
2022/02/08 14:01:51;;;;;;;;;51.50;39.50;;;;;;;;5044013;28;51193;-57
2022/02/08 14:07:29;;;;;;;;;49.00;38.00;;;;;;;;5052499;28;51024;-57
2022/02/08 14:10:47;;;;;;;;;44.25;37.50;;;;;;;;5040419;28;51043;-58
2022/02/08 14:20:03;;;;;;;;;51.50;37.75;;;;;;;;5054387;28;51626;-57
2022/02/08 14:23:08;;;;;;;;;50.75;38.50;;;;;;;;5053056;28;51219;-56
2022/02/08 15:13:26;;;;;;;;;49.50;37.25;;;;;;;;5050173;28;51702;-57
2022/02/08 15:16:29;;;;;;;;;47.75;36.00;;;;;;;;5058501;28;51212;-58
2022/02/08 15:19:15;;;;;;;;;46.25;36.00;;;;;;;;5042363;28;51194;-57
2022/02/08 15:22:01;;;;;;;;;47.25;37.25;;;;;;;;5047900;28;51274;-56
2022/02/08 15:24:45;;;;;;;;;51.50;37.50;;;;;;;;5050823;28;51080;-56
2022/02/08 15:27:30;;;;;;;;;50.50;38.75;;;;;;;;5040553;28;51159;-57
2022/02/08 15:30:15;;;;;;;;;47.50;36.00;;;;;;;;5050370;28;52379;-57
2022/02/08 15:33:00;;;;;;;;;49.00;38.75;;;;;;;;5058429;28;50971;-56
2022/02/08 15:35:45;;;;;;;;;52.00;37.50;;;;;;;;5039833;28;51105;-56
2022/02/08 15:38:32;;;;;;;;;52.75;38.75;;;;;;;;5038559;28;51038;-56
2022/02/08 15:41:17;;;;;;;;;53.50;39.50;;;;;;;;5038269;28;51150;-56
2022/02/08 15:44:03;;;;;;;;;46.75;36.75;;;;;;;;5046099;28;51142;-57
2022/02/08 15:46:48;;;;;;;;;49.50;36.25;;;;;;;;5061079;27;51112;-57
2022/02/08 15:49:33;;;;;;;;;47.00;36.50;;;;;;;;5038155;28;51105;-57
2022/02/08 15:53:06;;;;;;;;;53.75;39.50;;;;;;;;5058380;28;51193;-57
2022/02/08 16:00:18;;;;;;;;;47.50;35.50;;;;;;;;5039746;28;51403;-57
2022/02/08 16:05:08;;;;;;;;;44.25;33.50;;;;;;;;5041324;28;51557;-56
2022/02/08 16:07:48;;;;;;;;;41.50;35.50;;;;;;;;5049469;28;51110;-56
2022/02/08 16:10:43;;;;;;;;;47.75;37.25;;;;;;;;5037688;28;51274;-57
2022/02/08 16:13:52;;;;;;;;;54.25;38.75;;;;;;;;5051162;28;51293;-57
2022/02/08 16:22:31;;;;;;;;;51.75;40.25;;;;;;;;5039223;28;51130;-57
2022/02/08 16:25:42;;;;;;;;;53.00;38.50;;;;;;;;5051784;28;51599;-57
2022/02/08 16:28:46;;;;;;;;;51.50;38.25;;;;;;;;5040486;28;51108;-57
2022/02/08 17:00:55;;;;;;;;;49.50;38.75;;;;;;;;5037949;28;51152;-56
2022/02/08 17:03:51;;;;;;;;;51.75;38.75;;;;;;;;5057767;28;51083;-56
2022/02/08 17:06:35;;;;;;;;;51.75;41.25;;;;;;;;5056606;28;52241;-55
2022/02/08 17:09:33;;;;;;;;;49.00;37.75;;;;;;;;5057808;28;51189;-55
2022/02/08 17:12:27;;;;;;;;;47.00;36.00;;;;;;;;5061422;28;51169;-55
2022/02/08 17:15:36;;;;;;;;;50.50;40.75;;;;;;;;5062116;28;51663;-55
2022/02/08 17:48:09;;;;;;;;;49.00;40.75;;;;;;;;5053996;28;51157;-56
2022/02/08 17:50:54;;;;;;;;;52.50;39.00;;;;;;;;5051094;28;51071;-57
2022/02/08 17:53:38;;;;;;;;;53.25;39.00;;;;;;;;5053764;28;51047;-56
2022/02/08 17:56:23;;;;;;;;;52.50;39.50;;;;;;;;5063979;27;51312;-56
2022/02/08 17:59:07;;;;;;;;;57.25;43.50;;;;;;;;5050464;28;51146;-55
2022/02/08 18:01:52;;;;;;;;;52.00;41.00;;;;;;;;5055435;28;51220;-56
2022/02/08 18:04:37;;;;;;;;;53.50;41.75;;;;;;;;5044328;28;51554;-57
2022/02/08 18:07:21;;;;;;;;;49.00;39.00;;;;;;;;5053530;28;51235;-56
2022/02/08 18:10:06;;;;;;;;;51.00;38.50;;;;;;;;5050150;28;51206;-56
2022/02/08 18:12:52;;;;;;;;;54.75;41.25;;;;;;;;5054111;28;51189;-56
2022/02/08 18:15:37;;;;;;;;;54.50;36.50;;;;;;;;5053092;28;52452;-57
2022/02/08 18:18:25;;;;;;;;;54.75;42.00;;;;;;;;5052667;28;51260;-55
2022/02/08 18:21:26;;;;;;;;;54.00;41.50;;;;;;;;5050726;28;51272;-56
2022/02/08 18:24:25;;;;;;;;;54.50;40.50;;;;;;;;5048541;28;51247;-56
2022/02/08 18:55:47;;;;;;;;;37.50;27.00;;;;;;;;5047798;28;51601;-57
2022/02/08 19:03:26;;;;;;;;;46.75;38.00;;;;;;;;5039419;28;51068;-56
2022/02/08 19:12:32;;;;;;;;;53.50;41.00;;;;;;;;5043726;28;51191;-56
2022/02/08 19:18:28;;;;;;;;;56.50;43.00;;;;;;;;5054911;28;51179;-56
2022/02/08 19:21:31;;;;;;;;;53.00;42.00;;;;;;;;5046408;28;51688;-55
2022/02/08 19:24:18;;;;;;;;;51.50;40.50;;;;;;;;5047927;28;51087;-56
2022/02/08 19:27:03;;;;;;;;;56.50;42.25;;;;;;;;5058812;28;51127;-57
2022/02/08 19:29:47;;;;;;;;;57.50;44.50;;;;;;;;5037870;28;51491;-56
2022/02/08 19:32:32;;;;;;;;;59.25;43.25;;;;;;;;5040340;28;51165;-56
2022/02/08 19:35:16;;;;;;;;;57.50;43.50;;;;;;;;5040569;28;51236;-57
2022/02/08 19:38:01;;;;;;;;;54.50;42.00;;;;;;;;5039064;28;50961;-57
2022/02/08 19:40:45;;;;;;;;;54.50;41.50;;;;;;;;5038593;28;51436;-56
2022/02/08 19:43:30;;;;;;;;;55.50;42.50;;;;;;;;5038840;28;51097;-56
2022/02/08 19:46:15;;;;;;;;;56.25;42.25;;;;;;;;5048201;28;51151;-58
2022/02/08 19:49:00;;;;;;;;;48.75;40.25;;;;;;;;5058430;28;51165;-56
2022/02/08 19:51:44;;;;;;;;;50.50;40.75;;;;;;;;5059273;28;51152;-56
2022/02/08 19:54:34;;;;;;;;;50.50;40.25;;;;;;;;5058258;28;51420;-56
2022/02/08 19:57:24;;;;;;;;;53.25;42.25;;;;;;;;5041868;28;51167;-56
2022/02/08 20:00:15;;;;;;;;;55.25;41.25;;;;;;;;5058153;28;51420;-56
2022/02/08 20:03:03;;;;;;;;;52.50;40.50;;;;;;;;5053233;28;51169;-56
2022/02/08 20:05:49;;;;;;;;;54.50;39.50;;;;;;;;5053026;28;51425;-55
2022/02/08 20:08:33;;;;;;;;;51.50;40.25;;;;;;;;5056181;28;51102;-56
2022/02/08 20:11:17;;;;;;;;;53.75;40.50;;;;;;;;5054239;28;51655;-56
2022/02/08 20:14:02;;;;;;;;;53.75;41.25;;;;;;;;5052198;28;51211;-57
2022/02/08 20:16:48;;;;;;;;;54.75;41.00;;;;;;;;5042643;28;51109;-56
2022/02/08 20:19:32;;;;;;;;;52.75;44.25;;;;;;;;5038437;28;51479;-56
2022/02/08 20:22:17;;;;;;;;;53.00;42.25;;;;;;;;5053768;28;51192;-56
2022/02/08 20:25:05;;;;;;;;;52.25;42.00;;;;;;;;5071727;28;51126;-57
2022/02/08 20:27:59;;;;;;;;;54.75;41.00;;;;;;;;5057699;28;51220;-56
2022/02/08 20:30:43;;;;;;;;;60.75;44.50;;;;;;;;5056726;28;50994;-56
2022/02/08 20:33:27;;;;;;;;;57.75;43.25;;;;;;;;5058116;28;51145;-56
2022/02/08 20:36:13;;;;;;;;;60.00;42.50;;;;;;;;5052913;28;51492;-56
2022/02/08 20:38:58;;;;;;;;;51.75;40.00;;;;;;;;4994125;28;51233;-56
2022/02/08 20:41:42;;;;;;;;;57.50;43.00;;;;;;;;5051481;28;51127;-56
2022/02/08 20:44:28;;;;;;;;;52.00;41.00;;;;;;;;5038716;28;51406;-57
2022/02/08 20:47:22;;;;;;;;;53.50;38.50;;;;;;;;5056555;28;51008;-56
2022/02/08 20:50:15;;;;;;;;;49.00;40.75;;;;;;;;5061040;28;51305;-56
2022/02/08 20:55:48;;;;;;;;;55.00;41.75;;;;;;;;5048266;28;51180;-57
2022/02/08 21:01:58;;;;;;;;;54.50;42.25;;;;;;;;5028146;28;51225;-56
2022/02/08 21:05:00;;;;;;;;;53.00;40.75;;;;;;;;5047866;28;51262;-56
2022/02/08 21:07:44;;;;;;;;;53.75;41.25;;;;;;;;5053510;28;51152;-57
2022/02/08 21:10:30;;;;;;;;;50.50;41.00;;;;;;;;5055841;28;51584;-57
2022/02/08 21:13:17;;;;;;;;;53.50;41.00;;;;;;;;5052091;28;51548;-49
2022/02/08 21:16:01;;;;;;;;;51.00;40.75;;;;;;;;5060651;28;51160;-49
2022/02/08 21:18:46;;;;;;;;;54.00;40.75;;;;;;;;5047575;28;51113;-45
2022/02/08 21:21:30;;;;;;;;;55.50;40.25;;;;;;;;5049186;28;51855;-47
2022/02/08 21:24:15;;;;;;;;;55.00;43.25;;;;;;;;5052415;28;51197;-45
2022/02/08 21:27:02;;;;;;;;;56.25;42.25;;;;;;;;5054452;28;51825;-45
2022/02/08 21:29:57;;;;;;;;;53.00;41.50;;;;;;;;5050518;28;51286;-43
2022/02/08 21:53:15;;;;;;;;;55.25;40.50;;;;;;;;5048558;28;51587;-44
2022/02/08 21:56:00;;;;;;;;;51.25;41.50;;;;;;;;5051598;28;51158;-48
2022/02/08 21:58:45;;;;;;;;;51.00;39.50;;;;;;;;5065700;27;51111;-45
2022/02/08 22:01:29;;;;;;;;;53.75;39.00;;;;;;;;5052463;28;51452;-49
2022/02/08 22:04:13;;;;;;;;;49.75;39.25;;;;;;;;5055458;28;51776;-45
2022/02/08 22:06:58;;;;;;;;;49.00;37.50;;;;;;;;5051092;28;51079;-43
2022/02/08 22:09:45;;;;;;;;;52.00;39.75;;;;;;;;5049540;28;51526;-44
2022/02/08 22:24:22;;;;;;;;;62.50;48.00;;;;;;;;5050145;28;51209;-44
2022/02/08 22:33:09;;;;;;;;;56.00;43.50;;;;;;;;5040067;28;51498;-47
2022/02/08 22:36:01;;;;;;;;;57.25;42.00;;;;;;;;5053597;28;51167;-47
2022/02/08 22:39:01;;;;;;;;;52.00;40.00;;;;;;;;5051390;28;51252;-46
2022/02/08 22:44:45;;;;;;;;;55.25;42.50;;;;;;;;5047252;28;51663;-46
2022/02/08 22:47:30;;;;;;;;;50.50;40.00;;;;;;;;5051734;28;51095;-43
2022/02/08 22:50:15;;;;;;;;;51.75;40.50;;;;;;;;5050851;28;51098;-47
2022/02/08 22:52:59;;;;;;;;;50.50;39.25;;;;;;;;5055214;28;51393;-42
2022/02/08 22:55:43;;;;;;;;;54.00;38.50;;;;;;;;5045808;28;51691;-43
2022/02/08 22:58:28;;;;;;;;;48.25;37.50;;;;;;;;5047115;28;51109;-45
2022/02/08 23:01:12;;;;;;;;;50.00;39.25;;;;;;;;5051320;28;51155;-46
2022/02/08 23:03:57;;;;;;;;;54.00;40.00;;;;;;;;5049054;28;51487;-46
2022/02/08 23:06:42;;;;;;;;;51.50;39.75;;;;;;;;5047730;28;51097;-46
2022/02/08 23:13:15;;;;;;;;;52.25;39.00;;;;;;;;5021220;28;51110;-42
2022/02/08 23:37:10;;;;;;;;;52.25;39.50;;;;;;;;5046981;28;51606;-50
2022/02/08 23:39:55;;;;;;;;;57.00;43.50;;;;;;;;5045470;28;53124;-45
2022/02/08 23:42:39;;;;;;;;;55.25;41.25;;;;;;;;5045997;28;51190;-49
2022/02/08 23:45:24;;;;;;;;;49.25;39.50;;;;;;;;5052206;28;51569;-43
2022/02/08 23:48:14;;;;;;;;;53.75;40.50;;;;;;;;5051214;28;51758;-42
2022/02/08 23:51:06;;;;;;;;;54.50;42.25;;;;;;;;5045660;28;51115;-44
2022/02/08 23:54:06;;;;;;;;;54.75;41.00;;;;;;;;5046224;28;51206;-43
2022/02/08 23:59:45;;;;;;;;;51.25;40.00;;;;;;;;5051940;28;51583;-46
